Time;durP1;ratioP1;P1;durP2;ratioP2;P2;SDS_P1;SDS_P2;PMS_P1;PMS_P2;Temp;Humidity;BMP_temperature;BMP_pressure;BME280_temperature;BME280_humidity;BME280_pressure;Samples;Min_cycle;Max_cycle;Signal;HPM_P1;HPM_P2
2021/10/15 00:02:18;;;;;;;4.60;1.60;;;8.50;71.10;;;;;;5044694;28;20110;-79
2021/10/15 00:04:43;;;;;;;4.50;2.10;;;8.50;70.80;;;;;;5034718;28;20037;-79
2021/10/15 00:07:09;;;;;;;5.00;2.17;;;8.60;70.90;;;;;;5036851;28;20036;-79
2021/10/15 00:09:35;;;;;;;4.03;1.77;;;8.60;70.70;;;;;;5035454;28;20449;-79
2021/10/15 00:12:01;;;;;;;5.20;1.87;;;8.60;70.60;;;;;;5048797;28;20037;-79
2021/10/15 00:14:27;;;;;;;3.90;2.30;;;8.60;70.50;;;;;;5043461;28;20040;-79
2021/10/15 00:16:54;;;;;;;3.07;2.00;;;8.60;70.60;;;;;;5044508;28;20033;-79
2021/10/15 00:19:20;;;;;;;2.43;1.87;;;8.60;70.50;;;;;;5042089;28;20026;-79
2021/10/15 00:21:46;;;;;;;5.07;2.30;;;8.50;70.50;;;;;;5042950;28;20036;-79
2021/10/15 00:24:12;;;;;;;3.47;1.60;;;8.50;70.60;;;;;;5041974;28;20029;-79
2021/10/15 00:26:37;;;;;;;3.03;1.40;;;8.50;70.60;;;;;;5039905;28;20032;-79
2021/10/15 00:29:05;;;;;;;2.13;1.30;;;8.40;70.40;;;;;;5045054;28;20124;-79
2021/10/15 00:31:31;;;;;;;2.20;1.50;;;8.40;70.60;;;;;;5046704;28;20082;-79
2021/10/15 00:33:57;;;;;;;2.43;1.60;;;8.30;70.80;;;;;;5045407;28;20384;-79
2021/10/15 00:36:23;;;;;;;2.63;1.47;;;8.30;70.90;;;;;;5046078;28;20032;-79
2021/10/15 00:38:49;;;;;;;7.23;1.90;;;8.20;70.80;;;;;;5044710;28;20048;-79
2021/10/15 00:41:15;;;;;;;2.43;1.60;;;8.20;71.10;;;;;;5046725;28;20112;-79
2021/10/15 00:44:01;;;;;;;3.10;1.67;;;8.10;71.10;;;;;;5045333;28;20047;-79
2021/10/15 00:46:26;;;;;;;4.00;2.77;;;8.10;71.10;;;;;;5060134;28;20136;-79
2021/10/15 00:48:52;;;;;;;4.43;1.90;;;8.00;71.30;;;;;;5047452;28;20124;-79
2021/10/15 00:51:18;;;;;;;3.73;1.60;;;8.00;71.60;;;;;;5047901;28;20079;-79
2021/10/15 00:53:45;;;;;;;3.77;1.67;;;8.00;71.70;;;;;;5047368;28;20064;-79
2021/10/15 00:56:10;;;;;;;3.00;1.60;;;8.10;71.70;;;;;;5042132;28;20108;-79
2021/10/15 00:58:36;;;;;;;2.13;1.20;;;8.10;71.50;;;;;;5048275;28;20027;-79
2021/10/15 01:01:02;;;;;;;3.03;1.33;;;8.10;71.30;;;;;;5050633;28;20029;-79
2021/10/15 01:03:28;;;;;;;5.07;1.83;;;8.10;71.30;;;;;;5053318;28;20032;-79
2021/10/15 01:05:54;;;;;;;6.93;1.77;;;8.10;71.30;;;;;;5057123;28;20043;-79
2021/10/15 01:08:20;;;;;;;2.47;1.53;;;8.00;71.40;;;;;;5052865;28;20024;-79
2021/10/15 01:10:46;;;;;;;3.10;1.73;;;8.00;71.50;;;;;;5075678;28;20075;-79
2021/10/15 01:13:12;;;;;;;3.60;1.30;;;8.00;71.40;;;;;;5049503;28;20480;-79
2021/10/15 01:15:38;;;;;;;5.63;2.00;;;8.00;71.40;;;;;;5052602;28;20029;-79
2021/10/15 01:18:11;;;;;;;3.00;1.90;;;7.90;71.40;;;;;;5049685;28;20498;-78
2021/10/15 01:20:36;;;;;;;3.05;1.77;;;7.90;71.40;;;;;;5056256;28;20017;-79
2021/10/15 01:23:02;;;;;;;4.13;2.40;;;7.80;71.70;;;;;;5054955;28;20036;-79
2021/10/15 01:25:33;;;;;;;4.77;2.73;;;7.70;72.00;;;;;;5045282;28;20510;-78
2021/10/15 01:27:59;;;;;;;5.80;2.10;;;7.80;72.40;;;;;;5047796;28;20029;-78
2021/10/15 01:30:25;;;;;;;5.70;2.00;;;7.80;72.20;;;;;;5064006;28;20611;-79
2021/10/15 01:32:50;;;;;;;3.40;1.77;;;7.80;72.00;;;;;;5061701;28;20036;-79
2021/10/15 01:35:16;;;;;;;3.07;1.70;;;7.80;72.00;;;;;;5049238;28;20052;-79
2021/10/15 01:37:42;;;;;;;5.90;1.80;;;7.90;71.90;;;;;;5061437;28;20036;-79
2021/10/15 01:40:09;;;;;;;3.07;1.40;;;7.80;71.80;;;;;;5055403;28;20174;-79
2021/10/15 01:45:18;;;;;;;4.33;1.40;;;7.80;71.80;;;;;;5059981;28;20082;-79
2021/10/15 01:47:44;;;;;;;4.03;1.30;;;7.70;71.90;;;;;;5049926;28;20068;-79
2021/10/15 01:50:10;;;;;;;3.73;1.73;;;7.80;72.00;;;;;;5050996;28;20094;-79
2021/10/15 01:52:37;;;;;;;4.43;2.00;;;7.70;71.60;;;;;;5044447;28;20117;-79
2021/10/15 01:55:05;;;;;;;4.43;1.90;;;7.70;71.80;;;;;;5050726;28;20025;-79
2021/10/15 01:57:30;;;;;;;4.73;1.47;;;7.70;71.80;;;;;;5045004;28;20029;-79
2021/10/15 01:59:56;;;;;;;4.27;1.50;;;7.70;72.00;;;;;;5049370;28;20468;-78
2021/10/15 02:02:22;;;;;;;2.37;1.40;;;7.70;71.90;;;;;;5044410;28;20025;-79
2021/10/15 02:04:47;;;;;;;3.30;2.00;;;7.70;71.90;;;;;;5041885;28;20070;-79
2021/10/15 02:07:13;;;;;;;3.67;2.20;;;7.70;71.80;;;;;;5052291;28;20506;-79
2021/10/15 02:09:39;;;;;;;3.80;2.80;;;7.70;72.00;;;;;;5050339;28;20070;-79
2021/10/15 02:12:05;;;;;;;6.07;3.97;;;7.70;72.10;;;;;;5044176;28;20041;-79
2021/10/15 02:14:31;;;;;;;2.47;1.73;;;7.70;72.10;;;;;;5048036;28;20029;-79
2021/10/15 02:16:57;;;;;;;4.30;1.83;;;7.70;72.10;;;;;;5036853;28;20146;-78
2021/10/15 02:19:23;;;;;;;6.10;1.50;;;7.60;72.00;;;;;;5046710;28;20368;-79
2021/10/15 02:21:49;;;;;;;3.93;2.10;;;7.60;72.20;;;;;;5064264;28;20029;-78
2021/10/15 02:24:14;;;;;;;6.40;2.40;;;7.60;72.10;;;;;;5045983;28;20055;-79
2021/10/15 02:26:40;;;;;;;10.13;4.23;;;7.60;72.10;;;;;;5052033;28;20024;-78
2021/10/15 02:29:06;;;;;;;7.27;2.13;;;7.60;72.20;;;;;;5042705;28;20044;-79
2021/10/15 02:31:31;;;;;;;2.97;2.37;;;7.60;72.10;;;;;;5046849;28;20024;-79
2021/10/15 02:33:57;;;;;;;5.90;1.87;;;7.50;72.00;;;;;;5050703;28;20056;-78
2021/10/15 02:36:23;;;;;;;3.90;2.77;;;7.50;72.30;;;;;;5036044;28;20513;-79
2021/10/15 02:38:48;;;;;;;4.30;1.53;;;7.40;72.40;;;;;;5045726;28;20039;-79
2021/10/15 02:41:14;;;;;;;3.27;2.20;;;7.50;72.60;;;;;;5054255;28;20450;-79
2021/10/15 02:43:40;;;;;;;1.53;1.20;;;7.50;72.50;;;;;;5036946;28;20168;-79
2021/10/15 02:46:06;;;;;;;3.23;1.80;;;7.50;72.20;;;;;;5041852;28;20479;-79
2021/10/15 02:48:31;;;;;;;2.33;1.30;;;7.50;72.30;;;;;;5044745;28;20108;-79
2021/10/15 02:50:57;;;;;;;4.10;1.77;;;7.50;72.20;;;;;;5040070;28;20569;-79
2021/10/15 02:53:23;;;;;;;3.43;1.70;;;7.60;72.10;;;;;;5037053;28;20033;-80
2021/10/15 02:55:49;;;;;;;3.50;2.17;;;7.60;71.90;;;;;;5044564;28;20029;-79
2021/10/15 02:58:14;;;;;;;8.57;2.07;;;7.50;72.00;;;;;;5048826;28;20120;-79
2021/10/15 03:00:40;;;;;;;2.13;1.37;;;7.50;72.30;;;;;;5038287;28;20037;-79
2021/10/15 03:03:06;;;;;;;2.37;1.57;;;7.50;72.10;;;;;;5047499;28;20025;-79
2021/10/15 03:05:32;;;;;;;3.70;2.27;;;7.50;72.20;;;;;;5046202;28;20028;-79
2021/10/15 03:07:57;;;;;;;3.77;2.10;;;7.50;72.00;;;;;;5039120;28;20116;-78
2021/10/15 03:10:23;;;;;;;3.67;2.40;;;7.50;72.00;;;;;;5048109;28;20029;-79
2021/10/15 03:12:49;;;;;;;2.40;1.80;;;7.40;72.10;;;;;;5051010;28;20033;-78
2021/10/15 03:15:15;;;;;;;3.17;1.83;;;7.40;72.20;;;;;;5047340;28;20468;-79
2021/10/15 03:17:41;;;;;;;3.40;1.90;;;7.40;72.10;;;;;;5047056;28;20036;-79
2021/10/15 03:20:07;;;;;;;3.13;2.10;;;7.40;72.30;;;;;;5050978;28;20444;-79
2021/10/15 03:22:33;;;;;;;4.10;2.00;;;7.50;72.90;;;;;;5049068;28;20074;-79
2021/10/15 03:24:58;;;;;;;5.60;3.10;;;7.50;72.80;;;;;;5043037;28;20028;-78
2021/10/15 03:27:24;;;;;;;4.93;2.93;;;7.60;72.50;;;;;;5049146;28;20029;-79
2021/10/15 03:29:50;;;;;;;3.53;2.13;;;7.60;72.40;;;;;;5048172;28;20424;-79
2021/10/15 03:32:16;;;;;;;4.03;2.20;;;7.50;72.60;;;;;;5058222;28;20043;-78
2021/10/15 03:34:42;;;;;;;4.40;1.90;;;7.50;72.50;;;;;;5051467;28;20029;-79
2021/10/15 03:37:07;;;;;;;2.63;1.60;;;7.40;72.50;;;;;;5043070;28;20067;-78
2021/10/15 03:39:33;;;;;;;3.33;1.90;;;7.40;72.40;;;;;;5048579;28;20029;-79
2021/10/15 03:41:59;;;;;;;3.17;1.80;;;7.40;72.60;;;;;;5047539;28;20037;-78
2021/10/15 03:44:24;;;;;;;3.70;1.70;;;7.30;72.70;;;;;;5054054;28;20033;-79
2021/10/15 03:46:50;;;;;;;3.47;1.40;;;7.30;72.50;;;;;;5059378;28;20056;-78
2021/10/15 03:49:16;;;;;;;4.43;2.87;;;7.30;72.70;;;;;;5047970;28;20028;-79
2021/10/15 03:51:42;;;;;;;4.33;2.60;;;7.30;72.80;;;;;;5055411;28;20029;-78
2021/10/15 03:54:08;;;;;;;8.80;3.77;;;7.40;72.70;;;;;;5043680;28;20025;-79
2021/10/15 03:56:33;;;;;;;6.87;3.03;;;7.40;72.70;;;;;;5048146;28;20020;-78
2021/10/15 03:58:59;;;;;;;8.70;4.00;;;7.40;72.70;;;;;;5051941;28;20036;-79
2021/10/15 04:01:25;;;;;;;4.33;3.40;;;7.50;72.80;;;;;;5045243;28;20040;-79
2021/10/15 04:03:50;;;;;;;8.10;3.80;;;7.50;72.60;;;;;;5056686;28;20105;-79
2021/10/15 04:06:16;;;;;;;4.80;2.60;;;7.50;72.60;;;;;;5056340;28;20056;-79
2021/10/15 04:08:42;;;;;;;4.37;2.50;;;7.40;72.20;;;;;;5054194;28;20387;-78
2021/10/15 04:11:07;;;;;;;2.33;1.73;;;7.40;72.30;;;;;;5043287;28;20487;-79
2021/10/15 04:13:33;;;;;;;3.33;1.93;;;7.30;72.40;;;;;;5044000;28;20032;-79
2021/10/15 04:16:01;;;;;;;2.73;2.10;;;7.40;72.70;;;;;;5048530;28;20048;-79
2021/10/15 04:18:28;;;;;;;4.23;2.00;;;7.40;72.40;;;;;;5049597;28;20036;-79
2021/10/15 04:20:54;;;;;;;7.90;3.40;;;7.40;72.40;;;;;;5059713;28;20056;-79
2021/10/15 04:23:20;;;;;;;5.87;2.87;;;7.30;72.50;;;;;;5045190;28;20432;-79
2021/10/15 04:25:46;;;;;;;7.17;3.13;;;7.30;72.30;;;;;;5048502;28;20040;-79
2021/10/15 04:28:12;;;;;;;6.27;2.87;;;7.10;72.20;;;;;;5042878;28;20029;-78
2021/10/15 04:30:37;;;;;;;6.07;3.70;;;7.10;72.50;;;;;;5048284;28;20319;-79
2021/10/15 04:33:03;;;;;;;20.23;11.00;;;7.10;72.50;;;;;;5052791;28;20098;-79
2021/10/15 04:35:29;;;;;;;15.93;9.47;;;7.20;72.60;;;;;;5050798;28;20031;-79
2021/10/15 04:37:55;;;;;;;10.70;5.50;;;7.20;72.60;;;;;;5051888;28;20104;-79
2021/10/15 04:40:21;;;;;;;11.57;7.63;;;7.20;72.80;;;;;;5046827;28;20025;-79
2021/10/15 04:42:46;;;;;;;15.33;8.53;;;7.10;72.80;;;;;;5052844;28;20036;-79
2021/10/15 04:45:12;;;;;;;6.20;4.37;;;7.20;72.90;;;;;;5051818;28;20387;-79
2021/10/15 04:47:39;;;;;;;4.10;3.30;;;7.20;72.70;;;;;;5052304;28;20060;-79
2021/10/15 04:50:05;;;;;;;8.13;4.47;;;7.20;72.80;;;;;;5046563;28;20036;-79
2021/10/15 04:52:31;;;;;;;6.60;4.10;;;7.10;72.90;;;;;;5053323;28;20430;-79
2021/10/15 04:54:57;;;;;;;8.07;3.70;;;7.20;73.10;;;;;;5048977;28;20021;-79
2021/10/15 04:57:23;;;;;;;8.07;4.53;;;7.20;72.90;;;;;;5052109;28;20386;-79
2021/10/15 04:59:49;;;;;;;6.40;3.37;;;7.30;73.30;;;;;;5050602;28;20467;-79
2021/10/15 05:02:15;;;;;;;5.97;3.77;;;7.30;73.00;;;;;;5045986;28;20028;-79
2021/10/15 05:04:41;;;;;;;6.57;4.27;;;7.30;73.30;;;;;;5051982;28;20048;-79
2021/10/15 05:07:07;;;;;;;4.83;3.97;;;7.30;73.10;;;;;;5049263;28;21149;-78
2021/10/15 05:09:33;;;;;;;6.43;4.60;;;7.30;72.90;;;;;;5049162;28;20029;-79
2021/10/15 05:12:01;;;;;;;8.57;4.90;;;7.30;72.90;;;;;;5043085;28;20106;-79
2021/10/15 05:14:27;;;;;;;6.70;4.40;;;7.30;72.90;;;;;;5048083;28;20017;-79
2021/10/15 05:16:53;;;;;;;5.97;4.43;;;7.30;72.80;;;;;;5052204;28;20020;-79
2021/10/15 05:19:20;;;;;;;8.03;4.13;;;7.30;72.80;;;;;;5046799;28;20107;-79
2021/10/15 05:21:46;;;;;;;12.57;8.40;;;7.30;72.90;;;;;;5047916;28;20036;-79
2021/10/15 05:24:12;;;;;;;8.83;6.17;;;7.30;72.70;;;;;;5050318;28;20150;-79
2021/10/15 05:26:37;;;;;;;18.23;8.83;;;7.20;72.50;;;;;;5047842;28;20036;-79
2021/10/15 05:29:03;;;;;;;12.37;8.50;;;7.10;73.30;;;;;;5043133;28;20044;-79
2021/10/15 05:31:29;;;;;;;9.27;5.60;;;7.10;72.70;;;;;;5053618;28;20029;-79
2021/10/15 05:33:55;;;;;;;11.53;5.93;;;7.00;72.50;;;;;;5051017;28;20065;-78
2021/10/15 05:36:21;;;;;;;8.63;5.30;;;7.00;72.90;;;;;;5045807;28;20110;-79
2021/10/15 05:38:47;;;;;;;11.93;5.90;;;7.10;72.90;;;;;;5049229;28;20039;-79
2021/10/15 05:41:13;;;;;;;8.73;4.37;;;7.10;72.60;;;;;;5050854;28;20362;-79
2021/10/15 05:43:39;;;;;;;26.93;14.27;;;7.00;72.70;;;;;;5047618;28;20129;-78
2021/10/15 05:46:05;;;;;;;40.60;17.90;;;6.90;72.90;;;;;;5048559;28;20068;-79
2021/10/15 05:48:30;;;;;;;34.50;16.10;;;6.90;72.90;;;;;;5050902;28;20036;-79
2021/10/15 05:50:56;;;;;;;32.07;16.50;;;6.90;72.90;;;;;;5047243;28;20025;-79
2021/10/15 05:53:23;;;;;;;26.40;14.13;;;6.90;72.60;;;;;;5051365;28;20036;-79
2021/10/15 05:56:16;;;;;;;28.70;15.97;;;6.90;72.60;;;;;;5050758;28;20032;-79
2021/10/15 05:58:51;;;;;;;44.13;21.38;;;6.90;72.50;;;;;;5047143;28;20021;-79
2021/10/15 06:01:26;;;;;;;41.27;20.73;;;6.90;73.10;;;;;;5049243;28;20383;-79
2021/10/15 06:14:45;;;;;;;25.53;12.63;;;6.90;72.70;;;;;;5046204;28;20487;-79
2021/10/15 06:17:12;;;;;;;19.23;12.13;;;6.90;72.70;;;;;;5046999;28;20029;-79
2021/10/15 06:19:52;;;;;;;29.37;17.73;;;6.90;72.60;;;;;;5050930;28;20029;-78
2021/10/15 06:22:21;;;;;;;18.37;10.90;;;6.80;72.90;;;;;;5042447;28;20510;-79
2021/10/15 06:24:49;;;;;;;16.50;11.63;;;6.80;72.60;;;;;;5043851;28;20033;-78
2021/10/15 06:27:17;;;;;;;12.57;7.67;;;6.80;73.10;;;;;;5049624;28;20044;-78
2021/10/15 06:29:42;;;;;;;17.00;8.53;;;6.80;73.40;;;;;;5052888;28;20047;-80
2021/10/15 06:32:08;;;;;;;18.63;9.60;;;6.80;73.50;;;;;;5046852;28;20033;-78
2021/10/15 06:34:34;;;;;;;12.67;8.17;;;6.90;73.60;;;;;;5048694;28;20035;-79
2021/10/15 06:37:00;;;;;;;15.33;6.70;;;7.00;73.30;;;;;;5043873;28;20049;-79
2021/10/15 06:39:25;;;;;;;11.07;6.63;;;6.90;73.20;;;;;;5046323;28;20430;-79
2021/10/15 06:41:51;;;;;;;9.43;6.60;;;7.00;73.40;;;;;;5048397;28;20032;-78
2021/10/15 06:44:17;;;;;;;10.17;7.10;;;7.00;73.00;;;;;;5050867;28;20048;-78
2021/10/15 06:46:43;;;;;;;15.90;11.70;;;7.00;73.20;;;;;;5048631;28;20391;-78
2021/10/15 06:49:11;;;;;;;24.63;12.13;;;7.00;73.20;;;;;;5051452;28;20087;-78
2021/10/15 06:51:38;;;;;;;14.03;8.93;;;7.00;73.40;;;;;;5053931;28;20055;-78
2021/10/15 06:54:04;;;;;;;11.07;7.50;;;7.00;73.40;;;;;;5048991;28;20060;-79
2021/10/15 06:56:30;;;;;;;8.77;5.87;;;7.00;73.60;;;;;;5042333;28;20108;-79
2021/10/15 06:58:56;;;;;;;8.77;5.10;;;7.00;73.40;;;;;;5041461;28;20082;-78
2021/10/15 07:01:22;;;;;;;10.73;5.97;;;7.00;73.50;;;;;;5037577;28;20033;-78
2021/10/15 07:03:48;;;;;;;9.77;5.83;;;7.00;73.80;;;;;;5044409;28;20028;-79
2021/10/15 07:06:14;;;;;;;11.33;5.70;;;7.10;73.50;;;;;;5048165;28;20099;-79
2021/10/15 07:08:39;;;;;;;15.73;6.33;;;7.10;73.40;;;;;;5041795;28;20487;-78
2021/10/15 07:11:05;;;;;;;16.50;7.30;;;7.10;73.40;;;;;;5045793;28;20482;-79
2021/10/15 07:13:31;;;;;;;13.77;5.80;;;7.10;73.40;;;;;;5050758;28;20056;-78
2021/10/15 07:15:58;;;;;;;15.20;7.87;;;7.10;73.60;;;;;;5046977;28;20075;-79
2021/10/15 07:18:24;;;;;;;17.40;8.23;;;7.20;73.70;;;;;;5041613;28;20028;-79
2021/10/15 07:20:50;;;;;;;16.70;7.47;;;7.30;73.60;;;;;;5046553;28;20384;-79
2021/10/15 07:23:16;;;;;;;14.60;7.93;;;7.30;73.50;;;;;;5053396;28;20032;-79
2021/10/15 07:25:43;;;;;;;10.63;6.43;;;7.40;73.50;;;;;;5045427;28;20033;-78
2021/10/15 07:28:13;;;;;;;15.40;7.47;;;7.40;73.50;;;;;;5048280;28;20021;-78
2021/10/15 07:30:39;;;;;;;9.20;5.80;;;7.40;73.50;;;;;;5045533;28;20039;-78
2021/10/15 07:33:05;;;;;;;10.50;5.30;;;7.40;73.60;;;;;;5048034;28;20041;-78
2021/10/15 07:35:32;;;;;;;9.23;5.07;;;7.40;73.60;;;;;;5053530;28;20066;-78
2021/10/15 07:37:58;;;;;;;10.97;6.83;;;7.50;73.60;;;;;;5060545;28;20673;-78
2021/10/15 07:40:24;;;;;;;10.40;6.40;;;7.50;73.50;;;;;;5051664;28;20021;-78
2021/10/15 07:42:49;;;;;;;11.20;5.70;;;7.50;73.60;;;;;;5053180;28;20021;-78
2021/10/15 07:45:15;;;;;;;8.60;5.20;;;7.50;73.70;;;;;;5052697;28;20090;-78
2021/10/15 07:47:41;;;;;;;6.93;4.83;;;7.50;73.60;;;;;;5052763;28;20028;-78
2021/10/15 07:50:06;;;;;;;5.57;4.17;;;7.50;73.80;;;;;;5056499;28;20021;-78
2021/10/15 07:52:32;;;;;;;7.90;5.17;;;7.50;73.90;;;;;;5054580;28;20017;-78
2021/10/15 07:54:58;;;;;;;7.83;4.20;;;7.60;74.00;;;;;;5054453;28;20073;-78
2021/10/15 07:57:24;;;;;;;7.87;4.43;;;7.60;74.10;;;;;;5052848;28;20404;-78
2021/10/15 07:59:49;;;;;;;6.20;4.83;;;7.60;74.00;;;;;;5048420;28;20032;-78
2021/10/15 08:02:15;;;;;;;9.03;3.73;;;7.70;74.00;;;;;;5044270;28;20207;-78
2021/10/15 08:04:41;;;;;;;10.27;4.50;;;7.80;74.00;;;;;;5051672;28;20028;-78
2021/10/15 08:07:07;;;;;;;6.20;4.60;;;7.90;73.90;;;;;;5051298;28;20036;-78
2021/10/15 08:09:33;;;;;;;4.87;3.87;;;8.10;73.90;;;;;;5055641;28;20017;-78
2021/10/15 08:11:59;;;;;;;5.93;4.40;;;9.50;72.60;;;;;;5051933;28;20387;-79
2021/10/15 08:14:25;;;;;;;4.95;3.75;;;12.70;64.90;;;;;;5060686;28;20167;-79
2021/10/15 08:16:51;;;;;;;7.15;4.93;;;15.30;56.50;;;;;;5052856;28;20035;-79
2021/10/15 08:19:17;;;;;;;8.98;4.85;;;15.50;55.80;;;;;;5046841;28;20009;-80
2021/10/15 08:21:42;;;;;;;6.27;4.33;;;14.60;57.20;;;;;;5052876;28;20033;-79
2021/10/15 08:24:10;;;;;;;16.33;7.80;;;13.80;59.00;;;;;;5050265;28;20051;-79
2021/10/15 08:26:37;;;;;;;10.43;5.90;;;13.40;60.40;;;;;;5046325;28;20040;-79
2021/10/15 08:29:02;;;;;;;6.70;4.23;;;13.10;61.60;;;;;;5047204;28;20120;-78
2021/10/15 08:31:28;;;;;;;8.67;4.30;;;12.70;62.10;;;;;;5054732;28;20104;-79
2021/10/15 08:33:55;;;;;;;7.00;3.20;;;12.40;63.00;;;;;;5050097;28;20487;-78
2021/10/15 08:36:25;;;;;;;6.10;3.50;;;12.20;63.10;;;;;;5045508;28;20407;-78
2021/10/15 08:38:52;;;;;;;14.30;7.17;;;12.00;63.20;;;;;;5040088;28;20023;-78
2021/10/15 08:41:25;;;;;;;13.30;6.77;;;11.90;62.80;;;;;;5043001;28;20044;-79
2021/10/15 08:43:53;;;;;;;8.00;4.57;;;11.80;62.70;;;;;;5064800;28;20020;-79
2021/10/15 08:46:21;;;;;;;8.23;4.53;;;11.60;62.60;;;;;;5054747;28;20025;-78
2021/10/15 08:48:47;;;;;;;6.17;3.40;;;11.60;62.80;;;;;;5045284;28;20025;-78
2021/10/15 08:51:14;;;;;;;6.77;3.33;;;11.60;63.00;;;;;;5046422;28;20032;-78
2021/10/15 08:53:53;;;;;;;5.57;2.50;;;11.60;63.30;;;;;;5049357;28;20774;-78
2021/10/15 08:56:21;;;;;;;5.50;2.90;;;11.70;62.90;;;;;;5047301;28;20407;-78
2021/10/15 08:58:49;;;;;;;4.83;3.10;;;11.80;62.70;;;;;;5041479;28;20030;-79
2021/10/15 09:01:15;;;;;;;4.63;2.70;;;11.90;62.80;;;;;;5063654;28;20776;-78
2021/10/15 09:03:41;;;;;;;3.50;2.27;;;12.00;62.00;;;;;;5056784;28;20384;-78
2021/10/15 09:06:11;;;;;;;3.93;2.50;;;12.50;61.40;;;;;;5038517;28;20033;-79
2021/10/15 09:08:55;;;;;;;5.07;2.30;;;13.00;60.00;;;;;;5052000;28;20440;-79
2021/10/15 09:11:28;;;;;;;3.40;1.90;;;13.60;58.10;;;;;;5053442;28;20487;-80
2021/10/15 09:14:08;;;;;;;5.65;2.20;;;14.20;56.80;;;;;;5049375;28;20107;-79
2021/10/15 09:16:52;;;;;;;4.38;2.25;;;14.80;55.60;;;;;;5049800;28;20479;-79
2021/10/15 09:19:33;;;;;;;7.68;4.35;;;15.20;55.70;;;;;;5054246;28;20024;-79
2021/10/15 09:22:17;;;;;;;2.53;1.80;;;15.50;55.70;;;;;;5065634;28;20496;-79
2021/10/15 09:25:02;;;;;;;2.25;1.58;;;15.60;55.70;;;;;;5064312;28;20078;-79
2021/10/15 09:27:36;;;;;;;2.88;1.65;;;15.70;55.50;;;;;;5051659;28;20644;-79
2021/10/15 09:30:21;;;;;;;4.55;1.73;;;15.70;55.90;;;;;;5050825;28;20045;-79
2021/10/15 09:32:49;;;;;;;2.70;1.65;;;15.60;55.90;;;;;;5052299;28;20438;-79
2021/10/15 09:35:20;;;;;;;2.50;1.88;;;15.60;54.50;;;;;;5053864;28;20558;-79
2021/10/15 09:37:49;;;;;;;2.35;1.60;;;15.60;54.20;;;;;;5052457;28;20036;-79
2021/10/15 09:40:24;;;;;;;2.97;2.00;;;15.50;53.20;;;;;;5053428;28;20060;-79
2021/10/15 09:43:04;;;;;;;3.50;1.58;;;15.50;52.00;;;;;;5047858;28;20045;-79
2021/10/15 09:45:40;;;;;;;2.42;2.05;;;15.20;51.40;;;;;;5049557;28;20025;-79
2021/10/15 09:48:24;;;;;;;3.25;1.60;;;15.00;51.60;;;;;;5051755;28;20029;-79
2021/10/15 09:51:09;;;;;;;2.13;1.45;;;15.00;51.60;;;;;;5050358;28;20079;-79
2021/10/15 09:53:35;;;;;;;2.35;1.77;;;15.00;51.50;;;;;;5052371;28;20033;-79
2021/10/15 09:56:00;;;;;;;4.63;1.80;;;14.80;51.40;;;;;;5048184;28;20032;-79
2021/10/15 09:58:27;;;;;;;2.30;1.75;;;14.70;51.30;;;;;;5048762;28;20049;-79
2021/10/15 10:00:54;;;;;;;2.33;1.45;;;14.60;52.00;;;;;;5050444;28;20059;-79
2021/10/15 10:03:24;;;;;;;5.53;2.10;;;14.60;51.20;;;;;;5051431;28;20029;-79
2021/10/15 10:05:50;;;;;;;3.25;2.00;;;14.60;51.20;;;;;;5039817;28;20033;-79
2021/10/15 10:08:16;;;;;;;4.18;1.67;;;14.60;50.90;;;;;;5047999;28;20034;-79
2021/10/15 10:10:43;;;;;;;7.13;3.33;;;14.60;51.10;;;;;;5040892;28;20021;-79
2021/10/15 10:13:11;;;;;;;3.67;1.50;;;14.50;50.70;;;;;;5050139;28;20021;-79
2021/10/15 10:15:40;;;;;;;4.40;2.03;;;14.60;51.10;;;;;;5049009;28;20021;-79
2021/10/15 10:18:23;;;;;;;4.00;1.35;;;14.70;51.20;;;;;;5044300;28;20472;-81
2021/10/15 10:21:09;;;;;;;5.05;1.92;;;14.70;51.00;;;;;;5052471;28;20028;-80
2021/10/15 10:23:47;;;;;;;6.07;1.45;;;14.70;50.80;;;;;;5052411;28;20419;-80
2021/10/15 10:26:18;;;;;;;2.90;1.77;;;14.80;50.90;;;;;;5052137;28;20043;-80
2021/10/15 10:28:57;;;;;;;4.03;1.80;;;14.90;50.70;;;;;;5034965;28;20144;-80
2021/10/15 10:31:23;;;;;;;8.52;2.00;;;15.00;50.70;;;;;;5042750;28;20032;-80
2021/10/15 10:33:58;;;;;;;3.05;1.50;;;15.10;50.60;;;;;;5045364;28;20491;-80
2021/10/15 10:36:27;;;;;;;3.75;2.17;;;15.20;51.30;;;;;;5047349;28;20468;-80
2021/10/15 10:38:53;;;;;;;2.28;1.70;;;15.30;51.20;;;;;;5042426;28;20028;-80
2021/10/15 10:41:21;;;;;;;2.28;1.80;;;15.40;51.20;;;;;;5035899;28;20021;-81
2021/10/15 10:43:47;;;;;;;2.45;1.50;;;15.50;51.60;;;;;;5054402;28;20769;-80
2021/10/15 10:46:29;;;;;;;2.80;1.42;;;15.60;50.20;;;;;;5048531;28;20029;-79
2021/10/15 10:48:54;;;;;;;3.70;1.33;;;15.60;49.20;;;;;;5041849;28;20037;-80
2021/10/15 10:51:29;;;;;;;1.48;1.10;;;15.70;49.10;;;;;;5043734;28;20029;-80
2021/10/15 10:54:03;;;;;;;1.67;0.90;;;15.80;49.10;;;;;;5042892;28;20029;-80
2021/10/15 10:56:52;;;;;;;1.60;1.15;;;15.90;48.40;;;;;;5042510;28;20035;-80
2021/10/15 10:59:26;;;;;;;2.15;1.23;;;15.90;48.30;;;;;;5058352;28;20025;-80
2021/10/15 11:02:20;;;;;;;1.38;1.00;;;15.90;48.30;;;;;;5053808;28;20059;-80
2021/10/15 11:04:52;;;;;;;3.30;1.40;;;16.00;48.30;;;;;;5039613;28;20037;-80
2021/10/15 11:07:20;;;;;;;1.30;1.00;;;16.10;48.10;;;;;;5053087;28;20055;-79
2021/10/15 11:09:48;;;;;;;1.50;1.08;;;16.10;48.00;;;;;;5045703;28;20554;-80
2021/10/15 11:12:40;;;;;;;2.08;1.35;;;16.20;47.80;;;;;;5042278;28;20088;-79
2021/10/15 11:15:14;;;;;;;1.88;1.30;;;16.20;47.30;;;;;;5029727;28;20110;-80
2021/10/15 11:17:47;;;;;;;2.85;1.50;;;16.20;47.10;;;;;;5041209;28;20059;-80
2021/10/15 11:20:20;;;;;;;2.47;1.50;;;16.20;47.30;;;;;;5050448;28;20021;-80
2021/10/15 11:22:56;;;;;;;2.97;1.75;;;16.40;47.70;;;;;;5040482;28;20020;-80
2021/10/15 11:25:25;;;;;;;3.08;1.40;;;16.50;47.90;;;;;;5046002;28;20086;-80
2021/10/15 11:28:00;;;;;;;3.55;1.52;;;16.60;47.60;;;;;;5049089;28;20025;-80
2021/10/15 11:30:30;;;;;;;4.55;1.80;;;16.60;47.50;;;;;;5055752;28;20051;-80
2021/10/15 11:32:56;;;;;;;10.55;1.73;;;16.70;47.50;;;;;;5057413;28;20043;-80
2021/10/15 11:35:29;;;;;;;3.60;1.90;;;16.80;47.70;;;;;;5046361;28;20061;-80
2021/10/15 11:38:04;;;;;;;3.47;1.70;;;16.90;47.70;;;;;;5050232;28;22008;-81
2021/10/15 11:40:34;;;;;;;2.78;1.40;;;17.00;47.40;;;;;;5045090;28;20033;-80
2021/10/15 11:43:25;;;;;;;2.05;1.50;;;16.90;47.10;;;;;;5042085;28;20075;-80
2021/10/15 11:45:57;;;;;;;2.60;1.42;;;17.10;47.10;;;;;;5033787;28;20480;-80
2021/10/15 11:48:41;;;;;;;4.10;1.52;;;17.20;47.00;;;;;;5045630;28;20056;-81
2021/10/15 11:51:18;;;;;;;2.40;1.17;;;17.30;46.40;;;;;;5060866;28;20068;-80
2021/10/15 11:54:00;;;;;;;4.35;1.58;;;17.30;46.40;;;;;;5041013;28;20029;-80
2021/10/15 11:56:28;;;;;;;1.92;1.10;;;17.40;46.00;;;;;;5044035;28;20074;-80
2021/10/15 11:59:05;;;;;;;2.67;1.63;;;17.30;46.00;;;;;;5040029;28;20360;-80
2021/10/15 12:01:33;;;;;;;2.00;1.40;;;17.30;45.80;;;;;;5046141;28;20143;-80
2021/10/15 12:04:00;;;;;;;2.45;1.38;;;17.30;45.90;;;;;;5039460;28;20033;-80
2021/10/15 12:06:41;;;;;;;2.60;1.58;;;17.40;45.60;;;;;;5045836;28;20047;-81
2021/10/15 12:09:08;;;;;;;6.53;1.60;;;17.40;45.50;;;;;;5043977;28;20120;-80
2021/10/15 12:11:38;;;;;;;2.20;1.25;;;17.50;45.80;;;;;;5042892;28;20203;-81
2021/10/15 12:14:06;;;;;;;1.92;1.20;;;17.50;45.80;;;;;;5045481;28;20036;-80
2021/10/15 12:16:34;;;;;;;5.63;1.45;;;17.70;46.20;;;;;;5048957;28;20097;-81
2021/10/15 12:19:05;;;;;;;2.90;1.90;;;17.80;46.40;;;;;;5040248;28;20021;-81
2021/10/15 12:21:40;;;;;;;3.38;2.20;;;18.00;46.80;;;;;;5033395;28;20021;-81
2021/10/15 12:24:27;;;;;;;3.60;2.17;;;18.00;46.80;;;;;;5058212;28;20112;-80
2021/10/15 12:27:00;;;;;;;2.90;2.10;;;18.00;46.90;;;;;;5025682;28;20068;-80
2021/10/15 12:29:27;;;;;;;;;;;17.90;47.00;;;;;;5042506;28;20240;-80
2021/10/15 12:32:12;;;;;;;5.28;2.10;;;18.00;47.30;;;;;;5060820;28;19917;-81
2021/10/15 12:34:52;;;;;;;4.80;2.65;;;18.10;47.40;;;;;;5040324;28;20124;-81
2021/10/15 12:51:13;;;;;;;4.60;2.80;;;17.90;46.10;;;;;;5072289;28;20035;-81
2021/10/15 12:53:49;;;;;;;9.45;2.70;;;17.90;46.20;;;;;;5069076;28;20456;-81
2021/10/15 12:56:18;;;;;;;2.15;1.33;;;17.90;46.40;;;;;;5072533;28;20021;-81
2021/10/15 12:58:47;;;;;;;3.15;1.40;;;17.90;46.00;;;;;;5069075;28;20439;-81
2021/10/15 13:01:23;;;;;;;3.03;1.77;;;17.90;46.10;;;;;;5073722;28;20075;-80
2021/10/15 13:03:49;;;;;;;3.42;1.65;;;18.00;46.10;;;;;;5069086;28;20028;-81
2021/10/15 13:06:14;;;;;;;2.92;1.88;;;18.10;46.00;;;;;;5069169;28;20043;-81
2021/10/15 13:08:44;;;;;;;3.05;1.58;;;18.10;45.70;;;;;;5072464;28;20031;-80
2021/10/15 13:11:10;;;;;;;4.10;2.10;;;18.10;45.50;;;;;;5089433;28;20035;-80
2021/10/15 13:13:35;;;;;;;3.08;1.40;;;18.20;45.30;;;;;;5084186;28;20131;-80
2021/10/15 13:16:01;;;;;;;1.42;1.00;;;18.20;45.10;;;;;;5069356;28;20031;-81
2021/10/15 13:18:27;;;;;;;3.80;1.48;;;18.20;44.70;;;;;;5074867;28;20047;-80
2021/10/15 13:20:52;;;;;;;1.52;1.10;;;18.20;44.70;;;;;;5074111;28;20092;-80
2021/10/15 13:23:18;;;;;;;2.08;1.20;;;18.10;44.50;;;;;;5092635;28;20490;-80
2021/10/15 13:25:44;;;;;;;1.83;1.23;;;18.20;44.40;;;;;;5074222;28;20253;-81